sensor_id;sensor_type;location;lat;lon;timestamp;P1;durP1;ratioP1;P2;durP2;ratioP2
51326;SDS011;37412;52.836;6.362;2023-04-01T00:01:01;7.78;;;6.53;;
51326;SDS011;37412;52.836;6.362;2023-04-01T00:03:49;7.93;;;6.63;;
51326;SDS011;37412;52.836;6.362;2023-04-01T00:06:35;7.17;;;6.43;;
51326;SDS011;37412;52.836;6.362;2023-04-01T00:09:21;7.40;;;6.63;;
51326;SDS011;37412;52.836;6.362;2023-04-01T00:12:06;7.07;;;6.25;;
51326;SDS011;37412;52.836;6.362;2023-04-01T00:14:52;7.63;;;6.40;;
51326;SDS011;37412;52.836;6.362;2023-04-01T00:17:38;7.05;;;6.35;;
51326;SDS011;37412;52.836;6.362;2023-04-01T00:20:24;7.38;;;6.07;;
51326;SDS011;37412;52.836;6.362;2023-04-01T00:23:11;7.45;;;6.10;;
51326;SDS011;37412;52.836;6.362;2023-04-01T00:25:58;14.45;;;6.68;;
51326;SDS011;37412;52.836;6.362;2023-04-01T00:28:46;7.45;;;6.53;;
51326;SDS011;37412;52.836;6.362;2023-04-01T00:31:33;7.63;;;6.75;;
51326;SDS011;37412;52.836;6.362;2023-04-01T00:34:18;7.85;;;6.82;;
51326;SDS011;37412;52.836;6.362;2023-04-01T00:37:08;7.75;;;6.32;;
51326;SDS011;37412;52.836;6.362;2023-04-01T00:39:55;8.37;;;6.90;;
51326;SDS011;37412;52.836;6.362;2023-04-01T00:42:42;7.33;;;6.60;;
51326;SDS011;37412;52.836;6.362;2023-04-01T00:45:29;7.43;;;6.60;;
51326;SDS011;37412;52.836;6.362;2023-04-01T00:48:22;8.10;;;6.40;;
51326;SDS011;37412;52.836;6.362;2023-04-01T00:51:15;7.33;;;6.03;;
51326;SDS011;37412;52.836;6.362;2023-04-01T00:54:04;7.30;;;6.60;;
51326;SDS011;37412;52.836;6.362;2023-04-01T00:56:53;7.95;;;6.65;;
51326;SDS011;37412;52.836;6.362;2023-04-01T00:59:49;6.85;;;6.15;;
51326;SDS011;37412;52.836;6.362;2023-04-01T01:02:40;9.07;;;7.32;;
51326;SDS011;37412;52.836;6.362;2023-04-01T01:05:40;10.10;;;7.80;;
51326;SDS011;37412;52.836;6.362;2023-04-01T01:12:11;8.77;;;6.78;;
51326;SDS011;37412;52.836;6.362;2023-04-01T01:24:39;7.95;;;6.25;;
51326;SDS011;37412;52.836;6.362;2023-04-01T01:27:37;7.97;;;6.93;;
51326;SDS011;37412;52.836;6.362;2023-04-01T01:30:38;7.07;;;6.33;;
51326;SDS011;37412;52.836;6.362;2023-04-01T01:33:49;7.30;;;6.60;;
51326;SDS011;37412;52.836;6.362;2023-04-01T01:36:53;7.90;;;6.95;;
51326;SDS011;37412;52.836;6.362;2023-04-01T01:39:44;8.30;;;6.90;;
51326;SDS011;37412;52.836;6.362;2023-04-01T01:42:35;7.20;;;6.50;;
51326;SDS011;37412;52.836;6.362;2023-04-01T01:45:26;7.85;;;6.57;;
51326;SDS011;37412;52.836;6.362;2023-04-01T01:48:12;8.65;;;7.15;;
51326;SDS011;37412;52.836;6.362;2023-04-01T01:51:00;6.80;;;6.10;;
51326;SDS011;37412;52.836;6.362;2023-04-01T01:53:46;9.40;;;6.63;;
51326;SDS011;37412;52.836;6.362;2023-04-01T01:56:32;8.80;;;6.60;;
51326;SDS011;37412;52.836;6.362;2023-04-01T01:59:21;7.22;;;6.20;;
51326;SDS011;37412;52.836;6.362;2023-04-01T02:02:10;7.70;;;6.78;;
51326;SDS011;37412;52.836;6.362;2023-04-01T02:04:58;8.02;;;7.20;;
51326;SDS011;37412;52.836;6.362;2023-04-01T02:07:46;8.68;;;7.45;;
51326;SDS011;37412;52.836;6.362;2023-04-01T02:10:40;8.23;;;7.40;;
51326;SDS011;37412;52.836;6.362;2023-04-01T02:13:33;9.30;;;7.75;;
51326;SDS011;37412;52.836;6.362;2023-04-01T02:16:34;7.83;;;6.50;;
51326;SDS011;37412;52.836;6.362;2023-04-01T02:22:38;8.98;;;7.70;;
51326;SDS011;37412;52.836;6.362;2023-04-01T02:25:29;8.85;;;7.10;;
51326;SDS011;37412;52.836;6.362;2023-04-01T02:28:19;8.17;;;7.17;;
51326;SDS011;37412;52.836;6.362;2023-04-01T02:31:08;9.32;;;7.50;;
51326;SDS011;37412;52.836;6.362;2023-04-01T02:33:55;8.60;;;7.50;;
51326;SDS011;37412;52.836;6.362;2023-04-01T02:36:42;9.55;;;8.55;;
51326;SDS011;37412;52.836;6.362;2023-04-01T02:39:29;8.93;;;7.63;;
51326;SDS011;37412;52.836;6.362;2023-04-01T02:42:15;11.60;;;8.15;;
51326;SDS011;37412;52.836;6.362;2023-04-01T02:45:01;8.93;;;7.93;;
51326;SDS011;37412;52.836;6.362;2023-04-01T02:47:48;10.38;;;8.13;;
51326;SDS011;37412;52.836;6.362;2023-04-01T02:50:34;10.47;;;8.37;;
51326;SDS011;37412;52.836;6.362;2023-04-01T02:53:19;10.07;;;8.10;;
51326;SDS011;37412;52.836;6.362;2023-04-01T02:56:05;12.38;;;8.65;;
51326;SDS011;37412;52.836;6.362;2023-04-01T02:58:52;10.23;;;8.70;;
51326;SDS011;37412;52.836;6.362;2023-04-01T03:01:38;9.88;;;8.68;;
51326;SDS011;37412;52.836;6.362;2023-04-01T03:04:24;11.73;;;8.80;;
51326;SDS011;37412;52.836;6.362;2023-04-01T03:07:10;11.18;;;9.07;;
51326;SDS011;37412;52.836;6.362;2023-04-01T03:09:56;9.95;;;8.50;;
51326;SDS011;37412;52.836;6.362;2023-04-01T03:12:42;9.75;;;8.50;;
51326;SDS011;37412;52.836;6.362;2023-04-01T03:15:28;9.88;;;8.52;;
51326;SDS011;37412;52.836;6.362;2023-04-01T03:18:14;9.63;;;8.35;;
51326;SDS011;37412;52.836;6.362;2023-04-01T03:21:16;9.63;;;8.48;;
51326;SDS011;37412;52.836;6.362;2023-04-01T03:24:07;9.68;;;8.68;;
51326;SDS011;37412;52.836;6.362;2023-04-01T03:26:53;9.45;;;8.50;;
51326;SDS011;37412;52.836;6.362;2023-04-01T03:29:39;9.40;;;8.50;;
51326;SDS011;37412;52.836;6.362;2023-04-01T03:32:25;10.02;;;8.18;;
51326;SDS011;37412;52.836;6.362;2023-04-01T03:35:12;10.30;;;8.18;;
51326;SDS011;37412;52.836;6.362;2023-04-01T03:37:58;8.45;;;7.65;;
51326;SDS011;37412;52.836;6.362;2023-04-01T03:40:44;9.88;;;8.13;;
51326;SDS011;37412;52.836;6.362;2023-04-01T03:43:30;11.07;;;8.73;;
51326;SDS011;37412;52.836;6.362;2023-04-01T03:46:17;9.48;;;8.55;;
51326;SDS011;37412;52.836;6.362;2023-04-01T03:49:06;9.63;;;8.40;;
51326;SDS011;37412;52.836;6.362;2023-04-01T03:51:56;11.20;;;8.50;;
51326;SDS011;37412;52.836;6.362;2023-04-01T03:54:42;9.00;;;8.10;;
51326;SDS011;37412;52.836;6.362;2023-04-01T03:57:30;8.77;;;7.87;;
51326;SDS011;37412;52.836;6.362;2023-04-01T04:00:16;9.93;;;8.30;;
51326;SDS011;37412;52.836;6.362;2023-04-01T04:03:02;9.00;;;7.72;;
51326;SDS011;37412;52.836;6.362;2023-04-01T04:05:49;9.15;;;7.97;;
51326;SDS011;37412;52.836;6.362;2023-04-01T04:08:35;8.55;;;7.65;;
51326;SDS011;37412;52.836;6.362;2023-04-01T04:11:21;12.48;;;8.25;;
51326;SDS011;37412;52.836;6.362;2023-04-01T04:14:07;8.98;;;8.07;;
51326;SDS011;37412;52.836;6.362;2023-04-01T04:16:53;9.13;;;7.93;;
51326;SDS011;37412;52.836;6.362;2023-04-01T04:19:39;9.53;;;8.53;;
51326;SDS011;37412;52.836;6.362;2023-04-01T04:22:25;10.02;;;9.02;;
51326;SDS011;37412;52.836;6.362;2023-04-01T04:25:11;10.00;;;8.52;;
51326;SDS011;37412;52.836;6.362;2023-04-01T04:27:57;11.50;;;9.20;;
51326;SDS011;37412;52.836;6.362;2023-04-01T04:30:43;11.97;;;9.30;;
51326;SDS011;37412;52.836;6.362;2023-04-01T04:33:29;10.13;;;9.13;;
51326;SDS011;37412;52.836;6.362;2023-04-01T04:36:15;11.93;;;9.85;;
51326;SDS011;37412;52.836;6.362;2023-04-01T04:39:01;11.90;;;10.13;;
51326;SDS011;37412;52.836;6.362;2023-04-01T04:41:48;12.63;;;10.57;;
51326;SDS011;37412;52.836;6.362;2023-04-01T04:44:34;15.05;;;11.98;;
51326;SDS011;37412;52.836;6.362;2023-04-01T04:47:20;14.43;;;11.20;;
51326;SDS011;37412;52.836;6.362;2023-04-01T04:50:06;16.67;;;11.87;;
51326;SDS011;37412;52.836;6.362;2023-04-01T04:52:53;15.27;;;11.50;;
51326;SDS011;37412;52.836;6.362;2023-04-01T04:55:42;14.60;;;10.90;;
51326;SDS011;37412;52.836;6.362;2023-04-01T04:58:32;11.90;;;10.18;;
51326;SDS011;37412;52.836;6.362;2023-04-01T05:01:19;15.27;;;10.20;;
51326;SDS011;37412;52.836;6.362;2023-04-01T05:04:05;12.20;;;9.82;;
51326;SDS011;37412;52.836;6.362;2023-04-01T05:06:51;13.60;;;9.52;;
51326;SDS011;37412;52.836;6.362;2023-04-01T05:09:37;13.23;;;9.32;;
51326;SDS011;37412;52.836;6.362;2023-04-01T05:12:23;11.53;;;9.00;;
51326;SDS011;37412;52.836;6.362;2023-04-01T05:15:09;11.82;;;9.50;;
51326;SDS011;37412;52.836;6.362;2023-04-01T05:17:55;11.50;;;9.23;;
51326;SDS011;37412;52.836;6.362;2023-04-01T05:20:52;12.77;;;9.60;;
51326;SDS011;37412;52.836;6.362;2023-04-01T05:23:39;12.63;;;9.60;;
51326;SDS011;37412;52.836;6.362;2023-04-01T05:26:25;14.02;;;9.60;;
51326;SDS011;37412;52.836;6.362;2023-04-01T05:29:11;12.90;;;9.48;;
51326;SDS011;37412;52.836;6.362;2023-04-01T05:31:57;14.13;;;9.60;;
51326;SDS011;37412;52.836;6.362;2023-04-01T05:34:43;11.10;;;8.80;;
51326;SDS011;37412;52.836;6.362;2023-04-01T05:37:28;11.52;;;8.93;;
51326;SDS011;37412;52.836;6.362;2023-04-01T05:40:15;11.38;;;8.90;;
51326;SDS011;37412;52.836;6.362;2023-04-01T05:43:00;9.43;;;8.13;;
51326;SDS011;37412;52.836;6.362;2023-04-01T05:45:48;9.65;;;8.15;;
51326;SDS011;37412;52.836;6.362;2023-04-01T05:48:34;10.00;;;7.93;;
51326;SDS011;37412;52.836;6.362;2023-04-01T05:51:21;10.17;;;7.93;;
51326;SDS011;37412;52.836;6.362;2023-04-01T05:54:07;11.55;;;8.13;;
51326;SDS011;37412;52.836;6.362;2023-04-01T05:56:52;10.23;;;7.70;;
51326;SDS011;37412;52.836;6.362;2023-04-01T05:59:38;8.82;;;7.05;;
51326;SDS011;37412;52.836;6.362;2023-04-01T06:02:24;8.63;;;7.07;;
51326;SDS011;37412;52.836;6.362;2023-04-01T06:05:18;7.60;;;6.80;;
51326;SDS011;37412;52.836;6.362;2023-04-01T06:08:13;9.03;;;7.00;;
51326;SDS011;37412;52.836;6.362;2023-04-01T06:14:20;7.57;;;6.47;;
51326;SDS011;37412;52.836;6.362;2023-04-01T06:23:28;10.60;;;7.65;;
51326;SDS011;37412;52.836;6.362;2023-04-01T06:26:55;9.80;;;7.87;;
51326;SDS011;37412;52.836;6.362;2023-04-01T06:42:47;12.10;;;10.30;;
51326;SDS011;37412;52.836;6.362;2023-04-01T07:01:09;16.70;;;13.68;;
51326;SDS011;37412;52.836;6.362;2023-04-01T07:04:01;15.88;;;13.70;;
51326;SDS011;37412;52.836;6.362;2023-04-01T07:07:04;15.00;;;13.05;;
51326;SDS011;37412;52.836;6.362;2023-04-01T07:09:57;12.77;;;10.93;;
51326;SDS011;37412;52.836;6.362;2023-04-01T07:12:51;10.98;;;9.80;;
51326;SDS011;37412;52.836;6.362;2023-04-01T07:15:41;10.70;;;9.38;;
51326;SDS011;37412;52.836;6.362;2023-04-01T07:18:30;10.90;;;8.40;;
51326;SDS011;37412;52.836;6.362;2023-04-01T07:24:34;8.37;;;7.53;;
51326;SDS011;37412;52.836;6.362;2023-04-01T07:27:22;8.18;;;6.90;;
51326;SDS011;37412;52.836;6.362;2023-04-01T07:30:16;7.20;;;6.50;;
51326;SDS011;37412;52.836;6.362;2023-04-01T07:36:16;6.20;;;5.60;;
51326;SDS011;37412;52.836;6.362;2023-04-01T07:39:15;5.55;;;5.05;;
51326;SDS011;37412;52.836;6.362;2023-04-01T07:42:26;5.57;;;4.80;;
51326;SDS011;37412;52.836;6.362;2023-04-01T07:48:22;5.13;;;4.65;;
51326;SDS011;37412;52.836;6.362;2023-04-01T07:54:53;5.88;;;5.28;;
51326;SDS011;37412;52.836;6.362;2023-04-01T08:00:59;9.05;;;7.35;;
51326;SDS011;37412;52.836;6.362;2023-04-01T08:07:05;11.57;;;10.37;;
51326;SDS011;37412;52.836;6.362;2023-04-01T08:10:16;12.45;;;11.25;;
51326;SDS011;37412;52.836;6.362;2023-04-01T08:13:25;12.45;;;11.25;;
51326;SDS011;37412;52.836;6.362;2023-04-01T08:22:42;13.68;;;12.25;;
51326;SDS011;37412;52.836;6.362;2023-04-01T08:25:32;12.77;;;11.57;;
51326;SDS011;37412;52.836;6.362;2023-04-01T08:28:28;12.47;;;11.27;;
51326;SDS011;37412;52.836;6.362;2023-04-01T08:31:36;12.75;;;11.55;;
51326;SDS011;37412;52.836;6.362;2023-04-01T08:34:32;13.15;;;11.85;;
51326;SDS011;37412;52.836;6.362;2023-04-01T08:37:24;13.63;;;12.23;;
51326;SDS011;37412;52.836;6.362;2023-04-01T08:49:49;13.50;;;12.20;;
51326;SDS011;37412;52.836;6.362;2023-04-01T09:02:22;12.15;;;10.93;;
51326;SDS011;37412;52.836;6.362;2023-04-01T09:05:19;8.40;;;7.60;;
51326;SDS011;37412;52.836;6.362;2023-04-01T09:11:44;5.35;;;4.85;;
51326;SDS011;37412;52.836;6.362;2023-04-01T09:15:19;5.83;;;5.30;;
51326;SDS011;37412;52.836;6.362;2023-04-01T09:24:40;4.57;;;3.80;;
51326;SDS011;37412;52.836;6.362;2023-04-01T09:27:48;3.80;;;3.50;;
51326;SDS011;37412;52.836;6.362;2023-04-01T09:31:00;3.80;;;3.50;;
51326;SDS011;37412;52.836;6.362;2023-04-01T09:36:47;5.32;;;4.82;;
51326;SDS011;37412;52.836;6.362;2023-04-01T09:39:38;5.87;;;4.97;;
51326;SDS011;37412;52.836;6.362;2023-04-01T09:42:41;6.20;;;5.60;;
51326;SDS011;37412;52.836;6.362;2023-04-01T09:46:35;7.28;;;6.57;;
51326;SDS011;37412;52.836;6.362;2023-04-01T09:52:20;9.10;;;8.20;;
51326;SDS011;37412;52.836;6.362;2023-04-01T09:59:30;12.02;;;10.35;;
51326;SDS011;37412;52.836;6.362;2023-04-01T10:05:51;10.57;;;9.68;;
51326;SDS011;37412;52.836;6.362;2023-04-01T10:27:05;14.75;;;13.35;;
51326;SDS011;37412;52.836;6.362;2023-04-01T10:36:20;13.80;;;12.60;;
51326;SDS011;37412;52.836;6.362;2023-04-01T10:39:49;14.05;;;12.70;;
51326;SDS011;37412;52.836;6.362;2023-04-01T10:52:42;16.42;;;14.93;;
51326;SDS011;37412;52.836;6.362;2023-04-01T10:55:48;16.07;;;14.53;;
51326;SDS011;37412;52.836;6.362;2023-04-01T10:59:04;16.02;;;14.45;;
51326;SDS011;37412;52.836;6.362;2023-04-01T11:20:52;7.15;;;6.50;;
51326;SDS011;37412;52.836;6.362;2023-04-01T11:24:20;6.70;;;6.20;;
51326;SDS011;37412;52.836;6.362;2023-04-01T11:27:37;6.93;;;6.33;;
51326;SDS011;37412;52.836;6.362;2023-04-01T11:33:46;8.23;;;7.53;;
51326;SDS011;37412;52.836;6.362;2023-04-01T11:46:19;7.47;;;6.83;;
51326;SDS011;37412;52.836;6.362;2023-04-01T11:49:22;7.10;;;6.50;;
51326;SDS011;37412;52.836;6.362;2023-04-01T11:52:25;7.20;;;6.60;;
51326;SDS011;37412;52.836;6.362;2023-04-01T12:02:09;6.63;;;6.03;;
51326;SDS011;37412;52.836;6.362;2023-04-01T12:08:10;4.47;;;4.10;;
51326;SDS011;37412;52.836;6.362;2023-04-01T12:11:29;4.95;;;4.45;;
51326;SDS011;37412;52.836;6.362;2023-04-01T12:14:38;5.30;;;4.80;;
51326;SDS011;37412;52.836;6.362;2023-04-01T12:17:53;5.72;;;5.22;;
51326;SDS011;37412;52.836;6.362;2023-04-01T12:20:49;5.50;;;5.00;;
51326;SDS011;37412;52.836;6.362;2023-04-01T12:23:50;5.38;;;4.95;;
51326;SDS011;37412;52.836;6.362;2023-04-01T12:36:14;4.90;;;4.50;;
51326;SDS011;37412;52.836;6.362;2023-04-01T12:42:12;4.88;;;4.38;;
51326;SDS011;37412;52.836;6.362;2023-04-01T12:48:38;5.40;;;4.90;;
51326;SDS011;37412;52.836;6.362;2023-04-01T12:51:47;5.25;;;4.85;;
51326;SDS011;37412;52.836;6.362;2023-04-01T13:01:01;7.17;;;6.57;;
51326;SDS011;37412;52.836;6.362;2023-04-01T13:06:53;7.00;;;6.40;;
51326;SDS011;37412;52.836;6.362;2023-04-01T13:09:57;7.03;;;6.43;;
51326;SDS011;37412;52.836;6.362;2023-04-01T13:16:27;5.40;;;5.00;;
51326;SDS011;37412;52.836;6.362;2023-04-01T13:22:30;5.00;;;4.60;;
51326;SDS011;37412;52.836;6.362;2023-04-01T13:28:39;4.90;;;4.50;;
51326;SDS011;37412;52.836;6.362;2023-04-01T13:31:43;4.60;;;4.20;;
51326;SDS011;37412;52.836;6.362;2023-04-01T13:47:41;4.50;;;4.20;;
51326;SDS011;37412;52.836;6.362;2023-04-01T13:59:53;4.50;;;4.10;;
51326;SDS011;37412;52.836;6.362;2023-04-01T14:21:39;2.90;;;2.60;;
51326;SDS011;37412;52.836;6.362;2023-04-01T14:24:35;2.80;;;2.60;;
51326;SDS011;37412;52.836;6.362;2023-04-01T14:30:52;2.97;;;2.70;;
51326;SDS011;37412;52.836;6.362;2023-04-01T14:34:10;3.22;;;3.03;;
51326;SDS011;37412;52.836;6.362;2023-04-01T14:37:23;2.88;;;2.67;;
51326;SDS011;37412;52.836;6.362;2023-04-01T14:43:16;2.83;;;2.60;;
51326;SDS011;37412;52.836;6.362;2023-04-01T14:46:33;2.47;;;2.15;;
51326;SDS011;37412;52.836;6.362;2023-04-01T14:49:42;1.90;;;1.80;;
51326;SDS011;37412;52.836;6.362;2023-04-01T14:52:31;1.80;;;1.70;;
51326;SDS011;37412;52.836;6.362;2023-04-01T14:55:27;1.73;;;1.63;;
51326;SDS011;37412;52.836;6.362;2023-04-01T14:58:19;1.92;;;1.83;;
51326;SDS011;37412;52.836;6.362;2023-04-01T15:01:32;2.03;;;1.92;;
51326;SDS011;37412;52.836;6.362;2023-04-01T15:16:54;3.15;;;2.30;;
51326;SDS011;37412;52.836;6.362;2023-04-01T15:26:17;3.40;;;3.20;;
51326;SDS011;37412;52.836;6.362;2023-04-01T15:33:08;3.00;;;2.70;;
51326;SDS011;37412;52.836;6.362;2023-04-01T15:35:43;3.08;;;2.88;;
51326;SDS011;37412;52.836;6.362;2023-04-01T15:45:11;2.83;;;2.63;;
51326;SDS011;37412;52.836;6.362;2023-04-01T15:51:12;2.77;;;2.57;;
51326;SDS011;37412;52.836;6.362;2023-04-01T16:01:15;2.92;;;2.72;;
51326;SDS011;37412;52.836;6.362;2023-04-01T16:14:02;3.20;;;2.90;;
51326;SDS011;37412;52.836;6.362;2023-04-01T16:20:25;4.00;;;3.50;;
51326;SDS011;37412;52.836;6.362;2023-04-01T16:29:27;3.65;;;3.35;;
51326;SDS011;37412;52.836;6.362;2023-04-01T16:32:49;4.05;;;3.63;;
51326;SDS011;37412;52.836;6.362;2023-04-01T16:35:39;3.85;;;3.45;;
51326;SDS011;37412;52.836;6.362;2023-04-01T16:38:45;4.97;;;4.32;;
51326;SDS011;37412;52.836;6.362;2023-04-01T16:55:01;7.90;;;7.07;;
51326;SDS011;37412;52.836;6.362;2023-04-01T16:57:58;7.15;;;6.45;;
51326;SDS011;37412;52.836;6.362;2023-04-01T17:00:50;7.22;;;6.50;;
51326;SDS011;37412;52.836;6.362;2023-04-01T17:03:43;7.00;;;6.30;;
51326;SDS011;37412;52.836;6.362;2023-04-01T17:06:37;9.35;;;6.50;;
51326;SDS011;37412;52.836;6.362;2023-04-01T17:09:45;7.03;;;6.32;;
51326;SDS011;37412;52.836;6.362;2023-04-01T17:12:48;7.72;;;6.80;;
51326;SDS011;37412;52.836;6.362;2023-04-01T17:22:25;7.05;;;6.35;;
51326;SDS011;37412;52.836;6.362;2023-04-01T17:28:16;6.85;;;6.15;;
51326;SDS011;37412;52.836;6.362;2023-04-01T17:37:34;6.82;;;6.13;;
51326;SDS011;37412;52.836;6.362;2023-04-01T17:59:33;9.15;;;7.70;;
51326;SDS011;37412;52.836;6.362;2023-04-01T18:06:01;7.95;;;6.75;;
51326;SDS011;37412;52.836;6.362;2023-04-01T18:15:31;8.95;;;7.03;;
51326;SDS011;37412;52.836;6.362;2023-04-01T18:19:00;7.87;;;7.00;;
51326;SDS011;37412;52.836;6.362;2023-04-01T18:22:09;8.73;;;7.18;;
51326;SDS011;37412;52.836;6.362;2023-04-01T18:25:17;8.47;;;5.93;;
51326;SDS011;37412;52.836;6.362;2023-04-01T18:31:33;8.20;;;7.22;;
51326;SDS011;37412;52.836;6.362;2023-04-01T18:37:25;9.43;;;7.75;;
51326;SDS011;37412;52.836;6.362;2023-04-01T18:40:31;10.30;;;6.85;;
51326;SDS011;37412;52.836;6.362;2023-04-01T18:43:42;8.40;;;5.78;;
51326;SDS011;37412;52.836;6.362;2023-04-01T18:52:47;10.32;;;7.15;;
51326;SDS011;37412;52.836;6.362;2023-04-01T18:59:22;8.75;;;7.00;;
51326;SDS011;37412;52.836;6.362;2023-04-01T19:05:30;9.80;;;7.63;;
51326;SDS011;37412;52.836;6.362;2023-04-01T19:08:32;12.73;;;8.20;;
51326;SDS011;37412;52.836;6.362;2023-04-01T19:21:16;10.40;;;7.72;;
51326;SDS011;37412;52.836;6.362;2023-04-01T19:36:39;9.90;;;7.43;;
51326;SDS011;37412;52.836;6.362;2023-04-01T19:49:06;10.23;;;7.50;;
51326;SDS011;37412;52.836;6.362;2023-04-01T19:52:01;11.48;;;7.30;;
51326;SDS011;37412;52.836;6.362;2023-04-01T19:55:14;11.70;;;7.78;;
51326;SDS011;37412;52.836;6.362;2023-04-01T20:01:05;9.55;;;7.47;;
51326;SDS011;37412;52.836;6.362;2023-04-01T20:04:09;11.23;;;7.47;;
51326;SDS011;37412;52.836;6.362;2023-04-01T20:07:00;12.75;;;8.40;;
51326;SDS011;37412;52.836;6.362;2023-04-01T20:10:14;12.95;;;7.55;;
51326;SDS011;37412;52.836;6.362;2023-04-01T20:13:52;13.40;;;7.93;;
51326;SDS011;37412;52.836;6.362;2023-04-01T20:16:22;12.98;;;8.90;;
51326;SDS011;37412;52.836;6.362;2023-04-01T20:25:46;12.20;;;8.85;;
51326;SDS011;37412;52.836;6.362;2023-04-01T20:28:42;14.20;;;8.88;;
51326;SDS011;37412;52.836;6.362;2023-04-01T20:31:41;14.00;;;9.02;;
51326;SDS011;37412;52.836;6.362;2023-04-01T20:34:44;19.13;;;9.88;;
51326;SDS011;37412;52.836;6.362;2023-04-01T20:40:49;15.98;;;9.18;;
51326;SDS011;37412;52.836;6.362;2023-04-01T20:47:04;16.00;;;9.90;;
51326;SDS011;37412;52.836;6.362;2023-04-01T20:53:29;17.35;;;9.93;;
51326;SDS011;37412;52.836;6.362;2023-04-01T20:56:53;19.58;;;9.98;;
51326;SDS011;37412;52.836;6.362;2023-04-01T20:59:47;15.07;;;10.82;;
51326;SDS011;37412;52.836;6.362;2023-04-01T21:09:27;21.60;;;10.50;;
51326;SDS011;37412;52.836;6.362;2023-04-01T21:15:32;17.20;;;8.90;;
51326;SDS011;37412;52.836;6.362;2023-04-01T21:18:52;16.60;;;10.18;;
51326;SDS011;37412;52.836;6.362;2023-04-01T21:33:40;17.23;;;10.98;;
51326;SDS011;37412;52.836;6.362;2023-04-01T21:42:48;13.35;;;9.95;;
51326;SDS011;37412;52.836;6.362;2023-04-01T21:55:28;14.52;;;10.35;;
51326;SDS011;37412;52.836;6.362;2023-04-01T22:11:36;14.60;;;9.80;;
51326;SDS011;37412;52.836;6.362;2023-04-01T22:17:28;15.23;;;9.38;;
51326;SDS011;37412;52.836;6.362;2023-04-01T22:20:35;13.40;;;9.43;;
51326;SDS011;37412;52.836;6.362;2023-04-01T22:26:57;13.70;;;9.23;;
51326;SDS011;37412;52.836;6.362;2023-04-01T22:33:24;12.80;;;9.52;;
51326;SDS011;37412;52.836;6.362;2023-04-01T22:36:27;15.63;;;9.90;;
51326;SDS011;37412;52.836;6.362;2023-04-01T22:39:33;14.77;;;9.60;;
51326;SDS011;37412;52.836;6.362;2023-04-01T22:45:38;14.50;;;9.18;;
51326;SDS011;37412;52.836;6.362;2023-04-01T22:48:47;13.20;;;9.27;;
51326;SDS011;37412;52.836;6.362;2023-04-01T22:51:54;13.25;;;9.05;;
51326;SDS011;37412;52.836;6.362;2023-04-01T22:54:54;13.30;;;8.70;;
51326;SDS011;37412;52.836;6.362;2023-04-01T22:57:52;11.85;;;8.60;;
51326;SDS011;37412;52.836;6.362;2023-04-01T23:00:47;12.40;;;8.80;;
51326;SDS011;37412;52.836;6.362;2023-04-01T23:03:36;12.68;;;8.85;;
51326;SDS011;37412;52.836;6.362;2023-04-01T23:06:30;12.30;;;9.02;;
51326;SDS011;37412;52.836;6.362;2023-04-01T23:09:22;12.93;;;9.07;;
51326;SDS011;37412;52.836;6.362;2023-04-01T23:12:13;11.68;;;8.65;;
51326;SDS011;37412;52.836;6.362;2023-04-01T23:15:00;13.15;;;8.90;;
51326;SDS011;37412;52.836;6.362;2023-04-01T23:18:05;12.40;;;8.52;;
51326;SDS011;37412;52.836;6.362;2023-04-01T23:21:13;14.70;;;8.93;;
51326;SDS011;37412;52.836;6.362;2023-04-01T23:29:37;15.00;;;8.82;;
51326;SDS011;37412;52.836;6.362;2023-04-01T23:32:25;13.83;;;8.80;;
51326;SDS011;37412;52.836;6.362;2023-04-01T23:35:14;11.80;;;8.32;;
51326;SDS011;37412;52.836;6.362;2023-04-01T23:38:02;10.48;;;8.38;;
51326;SDS011;37412;52.836;6.362;2023-04-01T23:40:48;13.07;;;8.15;;
51326;SDS011;37412;52.836;6.362;2023-04-01T23:43:37;11.68;;;8.35;;
51326;SDS011;37412;52.836;6.362;2023-04-01T23:46:25;13.35;;;8.40;;
51326;SDS011;37412;52.836;6.362;2023-04-01T23:49:20;12.38;;;8.75;;
51326;SDS011;37412;52.836;6.362;2023-04-01T23:52:13;10.43;;;8.30;;
51326;SDS011;37412;52.836;6.362;2023-04-01T23:55:21;10.95;;;8.30;;
51326;SDS011;37412;52.836;6.362;2023-04-01T23:58:15;12.90;;;8.35;;
